Terminal Aerodrome Forecast
Issued by NWS Upton, NY

Home | Current Version | Previous Version | Text Only | Print | Product List | Glossary On
Versions: 1 2 3 4 5 6 7 8 9 10 11 12 13 14 15 16 17 18 19 20 21 22 23 24 25 26 27 28 29 30
576
FTUS41 KOKX 241734
TAFEWR
TAF
KEWR 241734Z 2418/2524 29008G14KT P6SM SCT050 SCT250
     FM242200 21009KT P6SM FEW050 BKN250
     FM250600 22006KT P6SM SCT150 BKN200
     FM250900 23006KT P6SM BKN050
     FM251600 24008KT 6SM HZ SCT150 BKN200
     FM251900 24010KT P6SM SCT050 BKN100 PROB30 2519/2523 TSRA
      BKN040CB=

USA.gov is the U.S. government's official web portal to all federal, state and local government web resources and services.